< < Back
Terminal Aerodrome Forecast


Current Version              Previous Versions:   1  2  3  4  5  6  7  8  9  

Terminal Aerodrome Forecast

173
FTUS42 KTAE 301500 AAA
TAFABY
TAF AMD
KABY 301532Z 3016/0112 05005KT P6SM OVC010
     FM301800 05005KT P6SM BKN025
     FM302000 05005KT P6SM SCT030
     FM010200 VRB02KT P6SM SKC=



Latest METAR

344
SAUS70 KWBC 010400 RRX
MTRABY
METAR KABY 010353Z 00000KT 10SM CLR 21/19 A2993 RMK AO2 SLP132 T02060194
$


USA.gov is the U.S. government's official web portal to all federal, state and local government web resources and services.